Time;durP1;ratioP1;P1;durP2;ratioP2;P2;SDS_P1;SDS_P2;PMS_P1;PMS_P2;Temp;Humidity;BMP_temperature;BMP_pressure;BME280_temperature;BME280_humidity;BME280_pressure;Samples;Min_cycle;Max_cycle;Signal;HPM_P1;HPM_P2
2021/11/22 00:01:52;;;;;;;7.78;6.28;;;9.90;99.90;;;;;;5074807;28;20281;-65
2021/11/22 00:04:19;;;;;;;11.23;6.60;;;9.90;99.90;;;;;;5060846;28;20269;-63
2021/11/22 00:06:46;;;;;;;8.75;6.25;;;9.80;99.90;;;;;;5074368;28;20245;-64
2021/11/22 00:09:13;;;;;;;9.40;6.30;;;9.80;99.90;;;;;;5071036;28;20685;-64
2021/11/22 00:11:40;;;;;;;9.43;6.18;;;9.80;99.90;;;;;;5074438;28;20220;-64
2021/11/22 00:14:08;;;;;;;7.22;4.75;;;9.90;99.90;;;;;;5073928;28;20293;-65
2021/11/22 00:16:35;;;;;;;7.53;4.68;;;9.90;99.90;;;;;;5074305;28;20227;-64
2021/11/22 00:19:03;;;;;;;9.48;6.18;;;9.80;99.90;;;;;;5074142;28;20232;-65
2021/11/22 00:21:30;;;;;;;6.22;5.63;;;9.80;99.90;;;;;;5074303;28;20236;-64
2021/11/22 00:23:57;;;;;;;8.52;5.40;;;9.90;99.90;;;;;;5074197;28;20231;-64
2021/11/22 00:26:24;;;;;;;5.70;4.00;;;9.80;99.90;;;;;;5072645;28;20261;-64
2021/11/22 00:28:51;;;;;;;4.88;4.38;;;9.80;99.90;;;;;;5073703;28;20227;-64
2021/11/22 00:31:18;;;;;;;6.70;4.60;;;9.70;99.90;;;;;;5073409;28;20216;-64
2021/11/22 00:33:46;;;;;;;7.03;4.15;;;9.70;99.90;;;;;;5073715;28;20236;-64
2021/11/22 00:36:15;;;;;;;4.78;4.00;;;9.70;99.90;;;;;;5072834;28;20227;-64
2021/11/22 00:38:41;;;;;;;6.70;3.72;;;9.60;99.90;;;;;;5073406;28;20223;-64
2021/11/22 00:41:09;;;;;;;5.40;3.67;;;9.70;99.90;;;;;;5073507;28;20232;-65
2021/11/22 00:43:36;;;;;;;3.13;2.80;;;9.60;99.90;;;;;;5073822;28;20228;-64
2021/11/22 00:46:03;;;;;;;4.45;4.00;;;9.70;99.90;;;;;;5073490;28;20251;-64
2021/11/22 00:48:31;;;;;;;3.85;2.85;;;9.60;99.90;;;;;;5074121;28;20238;-64
2021/11/22 00:50:58;;;;;;;5.30;4.32;;;9.60;99.90;;;;;;5073314;28;20285;-64
2021/11/22 00:53:28;;;;;;;5.60;3.08;;;9.70;99.90;;;;;;5073264;28;20232;-64
2021/11/22 00:55:56;;;;;;;4.78;2.95;;;9.60;99.90;;;;;;5073598;28;20220;-65
2021/11/22 00:58:23;;;;;;;5.32;4.00;;;9.60;99.90;;;;;;5073395;28;20300;-64
2021/11/22 01:00:50;;;;;;;4.18;3.63;;;9.60;99.90;;;;;;5073521;28;20273;-65
2021/11/22 01:03:17;;;;;;;2.90;2.60;;;9.50;99.90;;;;;;5065181;28;20213;-64
2021/11/22 01:05:44;;;;;;;5.85;2.95;;;9.60;99.90;;;;;;5068381;28;20228;-64
2021/11/22 01:08:11;;;;;;;2.92;2.72;;;9.50;99.90;;;;;;5073132;28;20413;-65
2021/11/22 01:10:40;;;;;;;2.65;2.35;;;9.50;99.90;;;;;;5073376;28;20223;-64
2021/11/22 01:13:08;;;;;;;3.78;2.65;;;9.50;99.90;;;;;;5072945;28;20239;-65
2021/11/22 01:15:35;;;;;;;2.83;2.53;;;9.50;99.90;;;;;;5073410;28;20244;-64
2021/11/22 01:18:03;;;;;;;3.45;2.50;;;9.50;99.90;;;;;;5073604;28;20231;-64
2021/11/22 01:20:31;;;;;;;3.67;2.55;;;9.50;99.90;;;;;;5072648;28;20224;-64
2021/11/22 01:23:00;;;;;;;3.78;2.60;;;9.50;99.90;;;;;;5073175;28;20220;-64
2021/11/22 01:25:27;;;;;;;3.20;2.40;;;9.40;99.90;;;;;;5072417;28;20236;-64
2021/11/22 01:27:56;;;;;;;3.15;2.85;;;9.30;99.90;;;;;;5073257;28;20705;-64
2021/11/22 01:30:23;;;;;;;4.13;3.20;;;9.30;99.90;;;;;;5072371;28;20236;-64
2021/11/22 01:32:51;;;;;;;4.30;2.90;;;9.30;99.90;;;;;;5073025;28;20289;-64
2021/11/22 01:35:18;;;;;;;3.10;2.70;;;9.30;99.90;;;;;;5072385;28;20224;-64
2021/11/22 01:37:47;;;;;;;4.05;2.38;;;9.30;99.90;;;;;;5073093;28;20224;-65
2021/11/22 01:40:16;;;;;;;3.08;2.50;;;9.20;99.90;;;;;;5072287;28;20721;-64
2021/11/22 01:42:43;;;;;;;2.47;2.25;;;9.20;99.90;;;;;;5072948;28;20697;-65
2021/11/22 01:45:15;;;;;;;4.45;2.67;;;9.20;99.90;;;;;;5072492;28;20231;-64
2021/11/22 01:47:44;;;;;;;2.65;2.25;;;9.10;99.90;;;;;;5072746;28;20543;-64
2021/11/22 01:50:14;;;;;;;3.35;2.38;;;9.20;99.90;;;;;;5072192;28;20236;-64
2021/11/22 01:52:41;;;;;;;5.10;2.63;;;9.20;99.90;;;;;;5072816;28;20228;-65
2021/11/22 01:55:09;;;;;;;3.00;1.85;;;9.10;99.90;;;;;;5072637;28;20232;-65
2021/11/22 01:57:36;;;;;;;3.55;2.28;;;9.10;99.90;;;;;;5072542;28;20223;-65
2021/11/22 02:00:06;;;;;;;2.97;2.40;;;9.10;99.90;;;;;;5072688;28;20289;-65
2021/11/22 02:02:34;;;;;;;2.88;2.03;;;9.10;99.90;;;;;;5070454;28;20644;-65
2021/11/22 02:05:01;;;;;;;2.55;2.03;;;9.00;99.90;;;;;;5061363;28;20228;-65
2021/11/22 02:07:32;;;;;;;4.95;2.17;;;9.00;99.90;;;;;;5071632;28;20243;-65
2021/11/22 02:09:59;;;;;;;3.35;1.80;;;8.90;99.90;;;;;;5072493;28;20223;-65
2021/11/22 02:12:25;;;;;;;2.35;1.75;;;8.90;99.90;;;;;;5071896;28;20686;-65
2021/11/22 02:14:52;;;;;;;3.83;2.08;;;8.90;99.90;;;;;;5072564;28;20258;-65
2021/11/22 02:17:19;;;;;;;2.13;1.55;;;8.90;99.90;;;;;;5072209;28;20235;-65
2021/11/22 02:19:58;;;;;;;5.00;1.50;;;8.90;99.90;;;;;;5072468;28;20224;-65
2021/11/22 02:22:26;;;;;;;3.65;2.08;;;8.90;99.90;;;;;;5066176;28;20224;-65
2021/11/22 02:24:53;;;;;;;5.30;2.10;;;8.90;99.90;;;;;;5065089;28;20323;-65
2021/11/22 02:27:20;;;;;;;2.25;1.90;;;8.90;99.90;;;;;;5071824;28;20281;-65
2021/11/22 02:29:47;;;;;;;5.30;2.03;;;9.00;99.90;;;;;;5072342;28;20315;-65
2021/11/22 02:32:15;;;;;;;4.00;1.55;;;8.90;99.90;;;;;;5071901;28;20324;-65
2021/11/22 02:34:43;;;;;;;1.83;1.63;;;8.90;99.90;;;;;;5070397;28;20303;-65
2021/11/22 02:37:11;;;;;;;2.10;1.90;;;8.90;99.90;;;;;;5071297;28;20302;-65
2021/11/22 02:39:38;;;;;;;1.80;1.65;;;8.90;99.90;;;;;;5075729;28;20224;-65
2021/11/22 02:42:12;;;;;;;1.50;1.40;;;8.90;99.90;;;;;;5076290;28;20219;-65
2021/11/22 02:44:40;;;;;;;2.40;1.38;;;8.90;99.90;;;;;;5076044;28;20248;-65
2021/11/22 02:47:07;;;;;;;1.58;1.42;;;9.00;99.90;;;;;;5076562;28;20223;-65
2021/11/22 02:49:34;;;;;;;2.17;1.45;;;8.90;99.90;;;;;;5075887;28;20231;-65
2021/11/22 02:52:01;;;;;;;1.67;1.58;;;8.90;99.90;;;;;;5076336;28;20219;-65
2021/11/22 02:54:29;;;;;;;1.58;1.48;;;8.90;99.90;;;;;;5076074;28;20733;-65
2021/11/22 02:56:56;;;;;;;2.50;1.60;;;8.90;99.90;;;;;;5076336;28;20224;-65
2021/11/22 02:59:23;;;;;;;4.90;1.45;;;8.90;99.90;;;;;;5075706;28;20223;-65
2021/11/22 03:01:50;;;;;;;2.22;2.00;;;9.00;99.90;;;;;;5076315;28;20227;-64
2021/11/22 03:04:16;;;;;;;2.58;1.65;;;9.00;99.90;;;;;;5075992;28;20616;-64
2021/11/22 03:06:45;;;;;;;1.75;1.42;;;9.00;99.90;;;;;;5075979;28;20235;-64
2021/11/22 03:09:12;;;;;;;3.92;1.70;;;9.00;99.90;;;;;;5075690;28;20597;-64
2021/11/22 03:11:41;;;;;;;1.30;1.20;;;9.10;99.90;;;;;;5075540;28;20224;-64
2021/11/22 03:14:07;;;;;;;2.15;1.27;;;9.10;99.90;;;;;;5075934;28;20678;-64
2021/11/22 03:16:34;;;;;;;2.03;1.65;;;9.10;99.90;;;;;;5075636;28;20314;-64
2021/11/22 03:19:01;;;;;;;1.85;1.50;;;9.20;99.90;;;;;;5075837;28;20224;-64
2021/11/22 03:21:28;;;;;;;1.40;1.10;;;9.20;99.90;;;;;;5075251;28;20727;-64
2021/11/22 03:23:55;;;;;;;1.30;1.15;;;9.20;99.90;;;;;;5075882;28;20227;-64
2021/11/22 03:26:22;;;;;;;3.03;1.30;;;9.20;99.90;;;;;;5075370;28;20250;-64
2021/11/22 03:28:50;;;;;;;2.17;1.48;;;9.20;99.90;;;;;;5075824;28;20226;-64
2021/11/22 03:31:17;;;;;;;3.28;1.95;;;9.20;99.90;;;;;;5075592;28;20219;-64
2021/11/22 03:33:47;;;;;;;4.63;1.20;;;9.20;99.90;;;;;;5074710;28;21021;-64
2021/11/22 03:36:14;;;;;;;1.30;1.20;;;9.30;99.90;;;;;;5074189;28;20747;-65
2021/11/22 03:38:42;;;;;;;2.47;1.50;;;9.20;99.90;;;;;;5073993;28;20649;-64
2021/11/22 03:41:12;;;;;;;1.42;1.30;;;9.20;99.90;;;;;;5074178;28;20220;-64
2021/11/22 03:43:47;;;;;;;1.48;1.00;;;9.20;99.90;;;;;;5074132;28;20625;-64
2021/11/22 03:46:16;;;;;;;1.70;1.35;;;9.20;99.90;;;;;;5074160;28;20216;-64
2021/11/22 03:48:43;;;;;;;1.70;1.60;;;9.20;99.90;;;;;;5073253;28;20234;-64
2021/11/22 03:51:10;;;;;;;4.63;1.15;;;9.30;99.90;;;;;;5073901;28;20231;-64
2021/11/22 03:53:37;;;;;;;1.60;1.50;;;9.30;99.90;;;;;;5073926;28;20645;-64
2021/11/22 03:56:05;;;;;;;2.30;2.10;;;9.30;99.90;;;;;;5074106;28;20681;-64
2021/11/22 03:58:31;;;;;;;1.30;1.20;;;9.30;99.90;;;;;;5073501;28;20693;-64
2021/11/22 04:00:59;;;;;;;1.90;1.38;;;9.30;99.90;;;;;;5073959;28;20225;-64
2021/11/22 04:03:27;;;;;;;3.25;1.40;;;9.30;99.90;;;;;;5073658;28;20561;-64
2021/11/22 04:05:55;;;;;;;2.03;1.77;;;9.30;99.90;;;;;;5074090;28;20686;-65
2021/11/22 04:08:22;;;;;;;1.73;1.20;;;9.30;99.90;;;;;;5073735;28;20223;-64
2021/11/22 04:10:52;;;;;;;1.83;1.50;;;9.30;99.90;;;;;;5073437;28;21001;-63
2021/11/22 04:13:19;;;;;;;2.55;1.38;;;9.30;99.90;;;;;;5073868;28;20223;-64
2021/11/22 04:15:46;;;;;;;1.30;1.10;;;9.30;99.90;;;;;;5073452;28;20228;-64
2021/11/22 04:18:14;;;;;;;1.95;1.27;;;9.30;99.90;;;;;;5073739;28;20220;-65
2021/11/22 04:20:42;;;;;;;2.92;1.35;;;9.40;99.90;;;;;;5073270;28;20311;-64
2021/11/22 04:23:11;;;;;;;2.75;1.30;;;9.40;99.90;;;;;;5073817;28;20224;-64
2021/11/22 04:25:38;;;;;;;3.45;1.90;;;9.40;99.90;;;;;;5073324;28;20224;-65
2021/11/22 04:28:06;;;;;;;1.10;1.00;;;9.40;99.90;;;;;;5073482;28;20228;-64
2021/11/22 04:30:34;;;;;;;3.30;1.25;;;9.40;99.90;;;;;;5073215;28;20259;-63
2021/11/22 04:33:02;;;;;;;3.20;1.40;;;9.40;99.90;;;;;;5026870;28;1342816;-63
2021/11/22 04:35:30;;;;;;;1.90;1.70;;;9.40;99.90;;;;;;5073998;28;20546;-63
2021/11/22 04:37:58;;;;;;;2.20;1.40;;;9.40;99.90;;;;;;5074556;28;20227;-63
2021/11/22 04:40:25;;;;;;;3.55;1.10;;;9.40;99.90;;;;;;5074351;28;20224;-64
2021/11/22 04:42:53;;;;;;;1.10;1.00;;;9.40;99.90;;;;;;5074261;28;20313;-64
2021/11/22 04:45:22;;;;;;;2.55;1.45;;;9.40;99.90;;;;;;5074370;28;20573;-64
2021/11/22 04:47:50;;;;;;;3.92;1.83;;;9.40;99.90;;;;;;5073715;28;20307;-65
2021/11/22 04:50:18;;;;;;;2.00;1.77;;;9.40;99.90;;;;;;5074069;28;20281;-65
2021/11/22 04:52:48;;;;;;;3.22;1.13;;;9.40;99.90;;;;;;5073819;28;20235;-64
2021/11/22 04:55:20;;;;;;;2.35;1.13;;;9.30;99.90;;;;;;5074112;28;20234;-64
2021/11/22 04:57:48;;;;;;;1.77;1.00;;;9.30;99.90;;;;;;5073552;28;20220;-64
2021/11/22 05:00:17;;;;;;;2.70;1.80;;;9.20;99.90;;;;;;5073064;28;20242;-64
2021/11/22 05:02:46;;;;;;;1.58;0.95;;;9.20;99.90;;;;;;5073473;28;20223;-64
2021/11/22 05:05:13;;;;;;;1.52;1.02;;;9.10;99.90;;;;;;5073780;28;20574;-64
2021/11/22 05:07:41;;;;;;;1.02;0.90;;;9.10;99.90;;;;;;5073527;28;20274;-64
2021/11/22 05:10:09;;;;;;;1.95;1.10;;;9.10;99.90;;;;;;5073551;28;20232;-65
2021/11/22 05:12:38;;;;;;;2.90;1.15;;;9.00;99.90;;;;;;5073310;28;20223;-65
2021/11/22 05:15:05;;;;;;;1.80;1.13;;;9.00;99.90;;;;;;5073788;28;20285;-64
2021/11/22 05:17:33;;;;;;;1.88;1.10;;;9.00;99.90;;;;;;5073343;28;20228;-64
2021/11/22 05:20:01;;;;;;;4.35;1.20;;;8.90;99.90;;;;;;5073323;28;20227;-64
2021/11/22 05:22:28;;;;;;;3.60;1.50;;;8.90;99.90;;;;;;5073703;28;20293;-65
2021/11/22 05:24:55;;;;;;;1.90;1.00;;;8.90;99.90;;;;;;5073109;28;20791;-64
2021/11/22 05:27:24;;;;;;;2.22;1.00;;;8.90;99.90;;;;;;5073379;28;20224;-64
2021/11/22 05:29:53;;;;;;;1.75;1.20;;;8.90;99.90;;;;;;5072991;28;20279;-64
2021/11/22 05:32:21;;;;;;;2.00;1.10;;;8.90;99.90;;;;;;5073066;28;20293;-64
2021/11/22 05:34:53;;;;;;;0.80;0.80;;;8.80;99.90;;;;;;5072904;28;20293;-64
2021/11/22 05:37:21;;;;;;;1.10;1.00;;;8.80;99.90;;;;;;5073405;28;20274;-64
2021/11/22 05:39:48;;;;;;;1.42;1.25;;;8.80;99.90;;;;;;5072742;28;20224;-64
2021/11/22 05:42:15;;;;;;;2.17;1.25;;;8.80;99.90;;;;;;5073204;28;20565;-63
2021/11/22 05:44:43;;;;;;;1.33;0.90;;;8.80;99.90;;;;;;5072837;28;20301;-64
2021/11/22 05:47:12;;;;;;;2.35;1.00;;;8.80;99.90;;;;;;5073110;28;20235;-64
2021/11/22 05:49:40;;;;;;;2.08;1.02;;;8.80;99.90;;;;;;5072441;28;20231;-64
2021/11/22 05:52:09;;;;;;;2.08;0.95;;;8.80;99.90;;;;;;5073040;28;20224;-64
2021/11/22 05:54:42;;;;;;;2.75;1.00;;;8.70;99.90;;;;;;5072584;28;20673;-64
2021/11/22 05:57:09;;;;;;;2.83;1.05;;;8.70;99.90;;;;;;5073099;28;20310;-64
2021/11/22 05:59:36;;;;;;;1.25;0.80;;;8.60;99.90;;;;;;5072563;28;20708;-64
2021/11/22 06:02:03;;;;;;;3.03;1.10;;;8.50;99.90;;;;;;5072772;28;20228;-65
2021/11/22 06:04:32;;;;;;;1.20;1.10;;;8.50;99.90;;;;;;5072881;28;20224;-64
2021/11/22 06:06:59;;;;;;;1.98;1.27;;;8.50;99.90;;;;;;5072621;28;20224;-64
2021/11/22 06:09:27;;;;;;;1.52;1.20;;;8.50;99.90;;;;;;5072746;28;20235;-64
2021/11/22 06:11:54;;;;;;;1.55;1.42;;;8.50;99.90;;;;;;5072305;28;20227;-64
2021/11/22 06:14:20;;;;;;;3.60;1.10;;;8.40;99.90;;;;;;5072812;28;20277;-64
2021/11/22 06:16:47;;;;;;;0.80;0.80;;;8.40;99.90;;;;;;5072264;28;20234;-64
2021/11/22 06:19:14;;;;;;;2.00;1.15;;;8.40;99.90;;;;;;5072702;28;20277;-65
2021/11/22 06:21:43;;;;;;;4.50;1.20;;;8.40;99.90;;;;;;5072368;28;20689;-65
2021/11/22 06:24:10;;;;;;;1.65;1.30;;;8.40;99.90;;;;;;5072463;28;20533;-65
2021/11/22 06:26:37;;;;;;;1.90;1.10;;;8.40;99.90;;;;;;5072391;28;20687;-65
2021/11/22 06:29:04;;;;;;;2.22;1.10;;;8.30;99.90;;;;;;5072621;28;20558;-65
2021/11/22 06:31:31;;;;;;;2.03;1.10;;;8.30;99.90;;;;;;5072667;28;20234;-64
2021/11/22 06:33:58;;;;;;;1.48;1.13;;;8.30;99.90;;;;;;5072195;28;20235;-65
2021/11/22 06:36:25;;;;;;;2.20;1.23;;;8.20;99.90;;;;;;5072437;28;20220;-65
2021/11/22 06:38:53;;;;;;;3.70;1.55;;;8.20;99.90;;;;;;5072034;28;20231;-65
2021/11/22 06:41:20;;;;;;;2.75;1.70;;;8.20;99.90;;;;;;5072594;28;20265;-65
2021/11/22 06:43:47;;;;;;;2.38;1.58;;;8.20;99.90;;;;;;5072066;28;20220;-65
2021/11/22 06:46:14;;;;;;;1.77;1.30;;;8.20;99.90;;;;;;5072429;28;20231;-65
2021/11/22 06:48:41;;;;;;;2.03;1.13;;;8.10;99.90;;;;;;5072060;28;20281;-65
2021/11/22 06:51:08;;;;;;;2.85;1.50;;;8.10;99.90;;;;;;5072172;28;20227;-65
2021/11/22 06:53:35;;;;;;;2.67;1.30;;;8.20;99.90;;;;;;5072480;28;20223;-65
2021/11/22 06:56:03;;;;;;;4.93;1.50;;;8.10;99.90;;;;;;5072081;28;20553;-65
2021/11/22 06:58:30;;;;;;;2.85;2.40;;;8.20;99.90;;;;;;5072309;28;20232;-64
2021/11/22 07:00:57;;;;;;;2.13;1.92;;;8.10;99.90;;;;;;5071924;28;20228;-65
2021/11/22 07:03:25;;;;;;;3.40;2.70;;;8.10;99.90;;;;;;5072336;28;20224;-65
2021/11/22 07:05:52;;;;;;;3.55;2.58;;;8.10;99.90;;;;;;5071609;28;20227;-65
2021/11/22 07:08:19;;;;;;;3.70;3.20;;;8.10;99.90;;;;;;5072190;28;20216;-65
2021/11/22 07:10:46;;;;;;;1.77;1.65;;;8.10;99.90;;;;;;5071765;28;20682;-65
2021/11/22 07:13:14;;;;;;;7.90;3.00;;;8.10;99.90;;;;;;5072277;28;20289;-65
2021/11/22 07:15:42;;;;;;;4.05;2.40;;;8.00;99.90;;;;;;5071821;28;20235;-65
2021/11/22 07:18:09;;;;;;;3.95;2.40;;;8.00;99.90;;;;;;5072156;28;20220;-65
2021/11/22 07:20:36;;;;;;;7.22;2.35;;;8.00;99.90;;;;;;5071795;28;20239;-65
2021/11/22 07:23:03;;;;;;;2.80;1.75;;;8.00;99.90;;;;;;5071589;28;20217;-65
2021/11/22 07:25:30;;;;;;;1.65;1.50;;;8.00;99.90;;;;;;5075721;28;20570;-65
2021/11/22 07:27:57;;;;;;;4.18;2.33;;;8.00;99.90;;;;;;5075276;28;20252;-65
2021/11/22 07:30:26;;;;;;;4.70;1.65;;;8.00;99.90;;;;;;5075714;28;20224;-64
2021/11/22 07:32:54;;;;;;;3.85;1.85;;;7.90;99.90;;;;;;5075131;28;20678;-65
2021/11/22 07:35:22;;;;;;;2.05;1.80;;;8.00;99.90;;;;;;5075379;28;20670;-65
2021/11/22 07:37:49;;;;;;;2.83;2.22;;;7.90;99.90;;;;;;5075234;28;20227;-65
2021/11/22 07:40:20;;;;;;;1.90;1.35;;;7.90;99.90;;;;;;5075465;28;20224;-65
2021/11/22 07:42:47;;;;;;;1.40;1.30;;;7.90;99.90;;;;;;5074937;28;20235;-65
2021/11/22 07:45:14;;;;;;;4.88;2.00;;;7.90;99.90;;;;;;5075542;28;20223;-65
2021/11/22 07:47:43;;;;;;;2.38;2.20;;;7.90;99.90;;;;;;5075016;28;20242;-65
2021/11/22 07:50:14;;;;;;;4.95;3.72;;;7.90;99.90;;;;;;5074987;28;20231;-65
2021/11/22 07:52:40;;;;;;;4.38;3.97;;;7.90;99.90;;;;;;5075428;28;20235;-65
2021/11/22 07:55:08;;;;;;;3.80;3.10;;;7.90;99.90;;;;;;5075008;28;20932;-65
2021/11/22 07:57:35;;;;;;;3.05;2.35;;;7.90;99.90;;;;;;5075036;28;20243;-65
2021/11/22 08:00:02;;;;;;;2.10;1.80;;;7.90;99.90;;;;;;5074792;28;20231;-65
2021/11/22 08:02:29;;;;;;;1.77;1.67;;;7.90;99.90;;;;;;5074812;28;20228;-65
2021/11/22 08:04:57;;;;;;;2.13;1.92;;;7.90;99.90;;;;;;5074580;28;20220;-65
2021/11/22 08:07:24;;;;;;;6.00;1.90;;;7.90;99.90;;;;;;5075141;28;20224;-65
2021/11/22 08:09:58;;;;;;;2.88;1.50;;;7.80;99.90;;;;;;5074362;28;20228;-65
2021/11/22 08:12:27;;;;;;;4.40;2.20;;;7.80;99.90;;;;;;5074955;28;20220;-65
2021/11/22 08:14:55;;;;;;;4.03;1.40;;;7.80;99.90;;;;;;5074542;28;20231;-65
2021/11/22 08:17:23;;;;;;;2.33;2.13;;;7.80;99.90;;;;;;5075039;28;20544;-65
2021/11/22 08:19:50;;;;;;;2.47;2.28;;;7.80;99.90;;;;;;5074209;28;20234;-65
2021/11/22 08:22:20;;;;;;;2.58;1.50;;;7.80;99.90;;;;;;5074963;28;20825;-65
2021/11/22 08:24:51;;;;;;;1.45;1.35;;;7.90;99.90;;;;;;5074442;28;20630;-65
2021/11/22 08:27:23;;;;;;;2.80;1.48;;;7.90;99.90;;;;;;5074784;28;20612;-65
2021/11/22 08:29:51;;;;;;;2.60;1.67;;;7.90;99.90;;;;;;5073887;28;20239;-65
2021/11/22 08:32:19;;;;;;;2.33;1.65;;;7.90;99.90;;;;;;5074454;28;20227;-65
2021/11/22 08:34:46;;;;;;;4.38;2.83;;;7.90;99.90;;;;;;5073419;28;20220;-65
2021/11/22 08:37:13;;;;;;;6.20;3.25;;;7.90;99.90;;;;;;5073845;28;20219;-65
2021/11/22 08:39:42;;;;;;;4.72;4.32;;;7.80;99.90;;;;;;5074348;28;20605;-65
2021/11/22 08:42:09;;;;;;;2.15;1.40;;;7.90;99.90;;;;;;5073872;28;20715;-65
2021/11/22 08:44:37;;;;;;;2.65;1.67;;;7.90;99.90;;;;;;5074311;28;20685;-65
2021/11/22 08:47:05;;;;;;;2.70;2.50;;;7.90;99.90;;;;;;5074007;28;20232;-65
2021/11/22 08:49:33;;;;;;;1.95;1.85;;;7.90;99.90;;;;;;5073840;28;20697;-65
2021/11/22 08:52:01;;;;;;;3.75;2.65;;;7.90;99.90;;;;;;5073795;28;20745;-65
2021/11/22 08:54:28;;;;;;;4.53;2.30;;;8.00;99.90;;;;;;5074348;28;20245;-65
2021/11/22 08:56:57;;;;;;;1.60;1.50;;;8.00;99.90;;;;;;5073617;28;20543;-65
2021/11/22 08:59:24;;;;;;;1.77;1.45;;;8.00;99.90;;;;;;5073959;28;20242;-65
2021/11/22 09:01:51;;;;;;;1.60;1.50;;;8.10;99.90;;;;;;5073605;28;20234;-65
2021/11/22 09:04:18;;;;;;;2.15;1.92;;;8.10;99.90;;;;;;5074040;28;20281;-65
2021/11/22 09:06:45;;;;;;;2.10;1.90;;;8.10;99.90;;;;;;5074066;28;20608;-64
2021/11/22 09:09:13;;;;;;;2.55;1.90;;;8.20;99.90;;;;;;5073129;28;20235;-64
2021/11/22 09:11:41;;;;;;;2.30;2.20;;;8.20;99.90;;;;;;5073651;28;20224;-64
2021/11/22 09:14:09;;;;;;;1.77;1.67;;;8.20;99.90;;;;;;5073460;28;20716;-64
2021/11/22 09:16:36;;;;;;;2.95;1.90;;;8.20;99.90;;;;;;5073657;28;20224;-64
2021/11/22 09:19:04;;;;;;;2.63;2.40;;;8.30;99.90;;;;;;5073066;28;20219;-64
2021/11/22 09:21:31;;;;;;;2.30;1.80;;;8.30;99.90;;;;;;5073557;28;20231;-64
2021/11/22 09:24:01;;;;;;;5.00;1.33;;;8.40;99.90;;;;;;5073213;28;20238;-64
2021/11/22 09:26:28;;;;;;;5.50;1.20;;;8.30;99.90;;;;;;5073432;28;20235;-64
2021/11/22 09:28:56;;;;;;;2.58;2.05;;;8.30;99.90;;;;;;5072867;28;20716;-65
2021/11/22 09:31:24;;;;;;;2.92;2.50;;;8.30;99.90;;;;;;5073406;28;20227;-64
2021/11/22 09:33:53;;;;;;;2.63;1.90;;;8.40;99.90;;;;;;5072861;28;20235;-65
2021/11/22 09:36:21;;;;;;;1.92;1.42;;;8.40;99.90;;;;;;5073284;28;20234;-65
2021/11/22 09:38:48;;;;;;;1.30;1.10;;;8.40;99.90;;;;;;5073105;28;20285;-65
2021/11/22 09:41:15;;;;;;;4.30;1.50;;;8.50;99.90;;;;;;5072743;28;20666;-64
2021/11/22 09:43:43;;;;;;;1.83;1.45;;;8.50;99.90;;;;;;5073154;28;20224;-65
2021/11/22 09:46:10;;;;;;;1.33;1.20;;;8.50;99.90;;;;;;5072436;28;20690;-65
2021/11/22 09:48:39;;;;;;;1.25;1.15;;;8.60;99.90;;;;;;5073130;28;20686;-65
2021/11/22 09:51:07;;;;;;;1.65;1.30;;;8.60;99.90;;;;;;5072542;28;20235;-65
2021/11/22 09:53:34;;;;;;;1.02;0.93;;;8.60;99.90;;;;;;5073044;28;20232;-65
2021/11/22 09:56:01;;;;;;;2.05;1.17;;;8.60;99.90;;;;;;5072439;28;20232;-65
2021/11/22 09:58:28;;;;;;;1.30;1.20;;;8.60;99.90;;;;;;5073114;28;20617;-65
2021/11/22 10:00:57;;;;;;;2.25;2.15;;;8.70;99.90;;;;;;5072559;28;20235;-65
2021/11/22 10:03:26;;;;;;;3.58;1.52;;;8.70;99.90;;;;;;5072737;28;20227;-65
2021/11/22 10:05:58;;;;;;;3.83;2.22;;;8.80;99.90;;;;;;5072648;28;20235;-65
2021/11/22 10:08:25;;;;;;;3.80;2.25;;;8.80;99.90;;;;;;5072866;28;20228;-65
2021/11/22 10:10:54;;;;;;;2.00;1.48;;;8.80;99.90;;;;;;5072857;28;20277;-65
2021/11/22 10:13:24;;;;;;;1.05;0.95;;;8.90;99.90;;;;;;5072571;28;20216;-65
2021/11/22 10:15:52;;;;;;;1.88;1.70;;;8.90;99.40;;;;;;5072873;28;20239;-65
2021/11/22 10:18:21;;;;;;;2.45;2.03;;;8.90;99.60;;;;;;5072401;28;20223;-65
2021/11/22 10:20:48;;;;;;;1.85;1.67;;;8.90;99.60;;;;;;5072681;28;20235;-65
2021/11/22 10:23:22;;;;;;;1.25;1.10;;;8.90;99.50;;;;;;5072239;28;20216;-65
2021/11/22 10:25:49;;;;;;;2.72;2.53;;;8.90;99.20;;;;;;5072772;28;20231;-65
2021/11/22 10:28:18;;;;;;;3.00;1.20;;;8.90;99.10;;;;;;5072206;28;20223;-65
2021/11/22 10:30:47;;;;;;;2.35;1.15;;;9.00;98.80;;;;;;5072827;28;20554;-65
2021/11/22 10:33:16;;;;;;;2.70;1.73;;;9.00;98.40;;;;;;5071961;28;20246;-65
2021/11/22 10:35:45;;;;;;;1.98;1.55;;;9.00;98.20;;;;;;5072504;28;20224;-65
2021/11/22 10:38:15;;;;;;;2.47;1.90;;;9.10;98.40;;;;;;5072189;28;20281;-65
2021/11/22 10:40:45;;;;;;;1.10;1.00;;;9.10;98.20;;;;;;5072494;28;20289;-65
2021/11/22 10:43:13;;;;;;;1.50;1.40;;;9.10;97.60;;;;;;5072143;28;20709;-65
2021/11/22 10:45:42;;;;;;;1.30;1.20;;;9.10;97.30;;;;;;5072649;28;20247;-65
2021/11/22 10:48:17;;;;;;;1.17;0.98;;;9.10;97.30;;;;;;5072102;28;20231;-65
2021/11/22 10:50:50;;;;;;;1.13;1.02;;;9.10;97.20;;;;;;5072103;28;20263;-64
2021/11/22 10:53:29;;;;;;;2.53;1.23;;;9.10;96.70;;;;;;5071924;28;20220;-65
2021/11/22 10:55:58;;;;;;;1.25;1.15;;;9.10;96.30;;;;;;5072422;28;20282;-65
2021/11/22 10:59:05;;;;;;;4.75;1.30;;;9.20;96.10;;;;;;5072733;28;20365;-65
2021/11/22 11:01:41;;;;;;;1.50;1.25;;;9.10;95.70;;;;;;5055455;28;20215;-65
2021/11/22 11:04:13;;;;;;;2.15;2.00;;;9.10;95.80;;;;;;5075897;28;20681;-65
2021/11/22 11:06:52;;;;;;;2.47;2.10;;;9.20;96.00;;;;;;5076057;28;20231;-65
2021/11/22 11:09:23;;;;;;;1.75;1.10;;;9.20;96.40;;;;;;5071833;28;20860;-65
2021/11/22 11:11:56;;;;;;;2.85;1.60;;;9.10;96.10;;;;;;5054347;28;20225;-65
2021/11/22 11:14:26;;;;;;;3.75;1.85;;;9.20;96.00;;;;;;5054025;28;20760;-64
2021/11/22 11:16:54;;;;;;;1.95;1.75;;;9.20;96.10;;;;;;5054043;28;20244;-66
2021/11/22 11:19:21;;;;;;;1.70;1.30;;;9.20;95.80;;;;;;5053479;28;20737;-64
2021/11/22 11:21:50;;;;;;;2.05;1.95;;;9.20;95.80;;;;;;5054069;28;20224;-64
2021/11/22 11:24:19;;;;;;;1.20;1.10;;;9.30;95.90;;;;;;5054486;28;20671;-64
2021/11/22 11:26:51;;;;;;;2.35;1.13;;;9.30;96.10;;;;;;5055852;28;20641;-64
2021/11/22 11:29:19;;;;;;;1.88;0.90;;;9.40;96.20;;;;;;5055386;28;20229;-64
2021/11/22 11:31:46;;;;;;;2.33;1.88;;;9.50;96.40;;;;;;5055786;28;20543;-64
2021/11/22 11:34:15;;;;;;;2.60;2.38;;;9.50;96.00;;;;;;5055217;28;20225;-63
2021/11/22 11:37:11;;;;;;;1.50;1.33;;;9.50;95.30;;;;;;5055760;28;20224;-64
2021/11/22 11:40:14;;;;;;;1.30;1.20;;;9.60;95.00;;;;;;5055294;28;20225;-64
2021/11/22 11:43:09;;;;;;;1.33;1.23;;;9.60;95.00;;;;;;5055322;28;20274;-64
2021/11/22 11:45:42;;;;;;;2.10;1.83;;;9.60;95.00;;;;;;5055021;28;20274;-64
2021/11/22 11:48:21;;;;;;;2.28;2.08;;;9.60;94.70;;;;;;5055350;28;20278;-64
2021/11/22 11:50:49;;;;;;;7.55;3.47;;;9.60;94.50;;;;;;5054811;28;20224;-64
2021/11/22 11:53:18;;;;;;;1.92;1.30;;;9.60;94.80;;;;;;5055207;28;20679;-64
2021/11/22 11:56:05;;;;;;;2.80;1.40;;;9.60;94.10;;;;;;5054895;28;20229;-65
2021/11/22 11:58:32;;;;;;;4.40;1.90;;;9.60;94.20;;;;;;5054738;28;20245;-65
2021/11/22 12:01:03;;;;;;;1.85;1.70;;;9.60;93.80;;;;;;5055103;28;20671;-65
2021/11/22 12:03:33;;;;;;;9.27;2.95;;;9.70;93.70;;;;;;5054643;28;20245;-64
2021/11/22 12:06:00;;;;;;;1.30;1.10;;;9.70;94.00;;;;;;5055019;28;20228;-64
2021/11/22 12:08:29;;;;;;;1.70;1.42;;;9.70;94.10;;;;;;5053547;28;20678;-64
2021/11/22 12:10:59;;;;;;;7.90;4.75;;;9.70;94.10;;;;;;5054482;28;20731;-64
2021/11/22 12:13:46;;;;;;;5.15;3.30;;;9.70;94.00;;;;;;5070970;28;20212;-64
2021/11/22 12:16:41;;;;;;;3.90;2.10;;;9.70;93.90;;;;;;5074741;28;20761;-64
2021/11/22 12:19:36;;;;;;;3.22;1.40;;;9.80;94.10;;;;;;5064867;28;20663;-64
2021/11/22 12:22:12;;;;;;;1.35;1.25;;;9.80;93.90;;;;;;5061934;28;20281;-64
2021/11/22 12:24:40;;;;;;;2.17;1.63;;;9.70;93.70;;;;;;5074346;28;20212;-64
2021/11/22 12:27:35;;;;;;;2.83;1.65;;;9.70;93.60;;;;;;5072512;28;20716;-64
2021/11/22 12:30:23;;;;;;;2.33;1.27;;;9.70;93.00;;;;;;5064977;28;20231;-64
2021/11/22 12:32:51;;;;;;;1.27;1.17;;;9.60;92.10;;;;;;5074051;28;20239;-65
2021/11/22 12:35:34;;;;;;;6.20;1.70;;;9.60;92.30;;;;;;5073870;28;20694;-64
2021/11/22 12:38:19;;;;;;;2.30;1.10;;;9.50;92.30;;;;;;5060595;28;20231;-65
2021/11/22 12:40:47;;;;;;;1.95;1.23;;;9.50;92.40;;;;;;5074139;28;20240;-64
2021/11/22 12:43:15;;;;;;;2.00;1.63;;;9.50;92.60;;;;;;5073939;28;20232;-64
2021/11/22 12:45:55;;;;;;;2.35;1.40;;;9.50;92.80;;;;;;5073821;28;20220;-64
2021/11/22 12:48:27;;;;;;;2.53;1.65;;;9.50;92.70;;;;;;5073830;28;20646;-64
2021/11/22 12:50:59;;;;;;;3.53;1.95;;;9.40;92.80;;;;;;5073717;28;20303;-65
2021/11/22 12:53:26;;;;;;;2.67;1.70;;;9.40;93.00;;;;;;5073853;28;20220;-65
2021/11/22 12:55:55;;;;;;;1.60;1.50;;;9.50;92.90;;;;;;5074027;28;20281;-64
2021/11/22 12:58:26;;;;;;;2.17;1.98;;;9.50;92.80;;;;;;5073340;28;20248;-65
2021/11/22 13:00:54;;;;;;;3.75;1.20;;;9.40;92.70;;;;;;5073799;28;20239;-65
2021/11/22 13:03:22;;;;;;;1.33;1.20;;;9.40;92.70;;;;;;5073195;28;20232;-65
2021/11/22 13:06:00;;;;;;;1.80;0.98;;;9.50;92.50;;;;;;5073536;28;20248;-65
2021/11/22 13:08:58;;;;;;;2.30;1.83;;;9.50;92.20;;;;;;5073416;28;20603;-65